sensor_id;sensor_type;location;lat;lon;timestamp;P1;durP1;ratioP1;P2;durP2;ratioP2
6388;SDS011;3227;42.654;23.360;2023-05-10T00:00:54;8.10;;;5.70;;
6388;SDS011;3227;42.654;23.360;2023-05-10T00:03:22;8.83;;;6.00;;
6388;SDS011;3227;42.654;23.360;2023-05-10T00:05:49;8.13;;;5.93;;
6388;SDS011;3227;42.654;23.360;2023-05-10T00:08:15;7.60;;;5.43;;
6388;SDS011;3227;42.654;23.360;2023-05-10T00:10:42;7.90;;;5.30;;
6388;SDS011;3227;42.654;23.360;2023-05-10T00:13:09;8.30;;;5.97;;
6388;SDS011;3227;42.654;23.360;2023-05-10T00:15:36;7.13;;;5.10;;
6388;SDS011;3227;42.654;23.360;2023-05-10T00:18:03;8.10;;;5.50;;
6388;SDS011;3227;42.654;23.360;2023-05-10T00:20:31;8.70;;;5.50;;
6388;SDS011;3227;42.654;23.360;2023-05-10T00:22:58;9.33;;;5.73;;
6388;SDS011;3227;42.654;23.360;2023-05-10T00:25:24;8.60;;;5.57;;
6388;SDS011;3227;42.654;23.360;2023-05-10T00:27:51;7.23;;;5.23;;
6388;SDS011;3227;42.654;23.360;2023-05-10T00:30:20;7.87;;;5.80;;
6388;SDS011;3227;42.654;23.360;2023-05-10T00:32:47;7.47;;;5.23;;
6388;SDS011;3227;42.654;23.360;2023-05-10T00:35:14;8.87;;;6.80;;
6388;SDS011;3227;42.654;23.360;2023-05-10T00:37:43;8.17;;;5.90;;
6388;SDS011;3227;42.654;23.360;2023-05-10T00:40:20;11.73;;;7.00;;
6388;SDS011;3227;42.654;23.360;2023-05-10T00:42:47;9.07;;;6.83;;
6388;SDS011;3227;42.654;23.360;2023-05-10T00:45:13;11.13;;;6.93;;
6388;SDS011;3227;42.654;23.360;2023-05-10T00:47:41;10.10;;;7.00;;
6388;SDS011;3227;42.654;23.360;2023-05-10T00:50:08;9.63;;;7.17;;
6388;SDS011;3227;42.654;23.360;2023-05-10T00:52:35;10.30;;;6.83;;
6388;SDS011;3227;42.654;23.360;2023-05-10T00:55:05;8.97;;;7.20;;
6388;SDS011;3227;42.654;23.360;2023-05-10T00:57:33;10.57;;;7.80;;
6388;SDS011;3227;42.654;23.360;2023-05-10T00:59:59;10.03;;;7.30;;
6388;SDS011;3227;42.654;23.360;2023-05-10T01:02:28;9.90;;;7.17;;
6388;SDS011;3227;42.654;23.360;2023-05-10T01:04:55;10.60;;;7.20;;
6388;SDS011;3227;42.654;23.360;2023-05-10T01:07:22;9.70;;;7.43;;
6388;SDS011;3227;42.654;23.360;2023-05-10T01:09:49;9.13;;;7.10;;
6388;SDS011;3227;42.654;23.360;2023-05-10T01:12:17;8.87;;;6.60;;
6388;SDS011;3227;42.654;23.360;2023-05-10T01:14:44;10.13;;;7.20;;
6388;SDS011;3227;42.654;23.360;2023-05-10T01:17:11;9.13;;;7.37;;
6388;SDS011;3227;42.654;23.360;2023-05-10T01:19:39;11.87;;;7.43;;
6388;SDS011;3227;42.654;23.360;2023-05-10T01:22:09;8.97;;;7.07;;
6388;SDS011;3227;42.654;23.360;2023-05-10T01:28:05;8.07;;;6.13;;
6388;SDS011;3227;42.654;23.360;2023-05-10T01:31:03;8.70;;;6.30;;
6388;SDS011;3227;42.654;23.360;2023-05-10T01:33:43;7.97;;;6.07;;
6388;SDS011;3227;42.654;23.360;2023-05-10T01:36:19;8.57;;;6.13;;
6388;SDS011;3227;42.654;23.360;2023-05-10T01:38:54;7.87;;;5.80;;
6388;SDS011;3227;42.654;23.360;2023-05-10T01:41:27;7.87;;;5.27;;
6388;SDS011;3227;42.654;23.360;2023-05-10T01:44:01;8.57;;;5.13;;
6388;SDS011;3227;42.654;23.360;2023-05-10T01:46:32;7.77;;;4.93;;
6388;SDS011;3227;42.654;23.360;2023-05-10T01:49:05;7.43;;;4.83;;
6388;SDS011;3227;42.654;23.360;2023-05-10T01:51:36;8.63;;;4.60;;
6388;SDS011;3227;42.654;23.360;2023-05-10T01:54:07;7.27;;;5.13;;
6388;SDS011;3227;42.654;23.360;2023-05-10T01:56:36;7.07;;;4.83;;
6388;SDS011;3227;42.654;23.360;2023-05-10T01:59:06;6.93;;;4.57;;
6388;SDS011;3227;42.654;23.360;2023-05-10T02:01:38;8.83;;;4.97;;
6388;SDS011;3227;42.654;23.360;2023-05-10T02:04:08;7.13;;;4.70;;
6388;SDS011;3227;42.654;23.360;2023-05-10T02:06:37;7.10;;;4.40;;
6388;SDS011;3227;42.654;23.360;2023-05-10T02:09:05;7.10;;;4.97;;
6388;SDS011;3227;42.654;23.360;2023-05-10T02:11:33;9.53;;;4.80;;
6388;SDS011;3227;42.654;23.360;2023-05-10T02:14:00;8.47;;;5.03;;
6388;SDS011;3227;42.654;23.360;2023-05-10T02:16:27;9.57;;;4.80;;
6388;SDS011;3227;42.654;23.360;2023-05-10T02:18:56;9.10;;;4.37;;
6388;SDS011;3227;42.654;23.360;2023-05-10T02:21:26;7.17;;;4.50;;
6388;SDS011;3227;42.654;23.360;2023-05-10T02:23:54;8.47;;;5.23;;
6388;SDS011;3227;42.654;23.360;2023-05-10T02:26:22;7.23;;;5.10;;
6388;SDS011;3227;42.654;23.360;2023-05-10T02:28:51;7.60;;;4.90;;
6388;SDS011;3227;42.654;23.360;2023-05-10T02:31:19;8.23;;;4.77;;
6388;SDS011;3227;42.654;23.360;2023-05-10T02:33:47;8.33;;;4.80;;
6388;SDS011;3227;42.654;23.360;2023-05-10T02:36:15;8.00;;;4.57;;
6388;SDS011;3227;42.654;23.360;2023-05-10T02:38:44;8.37;;;4.80;;
6388;SDS011;3227;42.654;23.360;2023-05-10T02:41:13;7.60;;;4.80;;
6388;SDS011;3227;42.654;23.360;2023-05-10T02:43:41;8.03;;;4.80;;
6388;SDS011;3227;42.654;23.360;2023-05-10T02:46:09;8.40;;;4.70;;
6388;SDS011;3227;42.654;23.360;2023-05-10T02:48:36;8.47;;;4.90;;
6388;SDS011;3227;42.654;23.360;2023-05-10T02:51:04;7.27;;;4.77;;
6388;SDS011;3227;42.654;23.360;2023-05-10T02:53:34;8.23;;;4.87;;
6388;SDS011;3227;42.654;23.360;2023-05-10T02:56:07;9.27;;;5.27;;
6388;SDS011;3227;42.654;23.360;2023-05-10T02:58:39;9.73;;;5.17;;
6388;SDS011;3227;42.654;23.360;2023-05-10T03:01:06;7.90;;;4.87;;
6388;SDS011;3227;42.654;23.360;2023-05-10T03:03:33;8.03;;;5.10;;
6388;SDS011;3227;42.654;23.360;2023-05-10T03:06:00;7.27;;;5.00;;
6388;SDS011;3227;42.654;23.360;2023-05-10T03:08:27;8.70;;;4.67;;
6388;SDS011;3227;42.654;23.360;2023-05-10T03:10:57;8.90;;;4.70;;
6388;SDS011;3227;42.654;23.360;2023-05-10T03:13:39;8.13;;;5.03;;
6388;SDS011;3227;42.654;23.360;2023-05-10T03:16:15;7.23;;;4.70;;
6388;SDS011;3227;42.654;23.360;2023-05-10T03:18:48;8.37;;;5.40;;
6388;SDS011;3227;42.654;23.360;2023-05-10T03:21:20;8.37;;;5.27;;
6388;SDS011;3227;42.654;23.360;2023-05-10T03:23:51;7.57;;;4.90;;
6388;SDS011;3227;42.654;23.360;2023-05-10T03:26:26;7.13;;;4.80;;
6388;SDS011;3227;42.654;23.360;2023-05-10T03:28:55;7.20;;;4.47;;
6388;SDS011;3227;42.654;23.360;2023-05-10T03:31:24;10.30;;;4.73;;
6388;SDS011;3227;42.654;23.360;2023-05-10T03:33:51;8.17;;;5.20;;
6388;SDS011;3227;42.654;23.360;2023-05-10T03:36:19;7.73;;;5.27;;
6388;SDS011;3227;42.654;23.360;2023-05-10T03:41:53;7.17;;;4.53;;
6388;SDS011;3227;42.654;23.360;2023-05-10T03:44:22;9.30;;;5.10;;
6388;SDS011;3227;42.654;23.360;2023-05-10T03:46:48;7.30;;;4.90;;
6388;SDS011;3227;42.654;23.360;2023-05-10T03:49:15;7.20;;;4.63;;
6388;SDS011;3227;42.654;23.360;2023-05-10T03:51:42;7.97;;;5.43;;
6388;SDS011;3227;42.654;23.360;2023-05-10T03:54:09;9.50;;;5.23;;
6388;SDS011;3227;42.654;23.360;2023-05-10T03:56:36;9.90;;;5.50;;
6388;SDS011;3227;42.654;23.360;2023-05-10T03:59:02;7.23;;;4.60;;
6388;SDS011;3227;42.654;23.360;2023-05-10T04:01:33;9.97;;;5.30;;
6388;SDS011;3227;42.654;23.360;2023-05-10T04:04:00;8.60;;;5.40;;
6388;SDS011;3227;42.654;23.360;2023-05-10T04:06:27;9.20;;;5.70;;
6388;SDS011;3227;42.654;23.360;2023-05-10T04:08:54;10.17;;;5.20;;
6388;SDS011;3227;42.654;23.360;2023-05-10T04:11:21;8.00;;;5.77;;
6388;SDS011;3227;42.654;23.360;2023-05-10T04:13:48;9.40;;;5.60;;
6388;SDS011;3227;42.654;23.360;2023-05-10T04:16:14;9.00;;;5.37;;
6388;SDS011;3227;42.654;23.360;2023-05-10T04:18:43;9.73;;;5.10;;
6388;SDS011;3227;42.654;23.360;2023-05-10T04:21:12;8.20;;;5.27;;
6388;SDS011;3227;42.654;23.360;2023-05-10T04:23:40;9.27;;;5.03;;
6388;SDS011;3227;42.654;23.360;2023-05-10T04:26:07;8.00;;;5.33;;
6388;SDS011;3227;42.654;23.360;2023-05-10T04:28:34;8.50;;;5.30;;
6388;SDS011;3227;42.654;23.360;2023-05-10T04:31:01;8.43;;;5.50;;
6388;SDS011;3227;42.654;23.360;2023-05-10T04:33:29;10.53;;;5.27;;
6388;SDS011;3227;42.654;23.360;2023-05-10T04:35:57;9.87;;;5.80;;
6388;SDS011;3227;42.654;23.360;2023-05-10T04:38:24;9.03;;;6.07;;
6388;SDS011;3227;42.654;23.360;2023-05-10T04:40:51;9.77;;;6.23;;
6388;SDS011;3227;42.654;23.360;2023-05-10T04:43:17;10.10;;;5.60;;
6388;SDS011;3227;42.654;23.360;2023-05-10T04:45:44;9.33;;;5.70;;
6388;SDS011;3227;42.654;23.360;2023-05-10T04:48:11;12.20;;;6.10;;
6388;SDS011;3227;42.654;23.360;2023-05-10T04:50:38;10.30;;;5.33;;
6388;SDS011;3227;42.654;23.360;2023-05-10T04:53:07;8.03;;;5.50;;
6388;SDS011;3227;42.654;23.360;2023-05-10T04:55:33;7.47;;;5.17;;
6388;SDS011;3227;42.654;23.360;2023-05-10T04:58:00;10.70;;;5.63;;
6388;SDS011;3227;42.654;23.360;2023-05-10T05:00:27;9.80;;;6.07;;
6388;SDS011;3227;42.654;23.360;2023-05-10T05:02:54;8.20;;;5.37;;
6388;SDS011;3227;42.654;23.360;2023-05-10T05:05:21;11.90;;;6.07;;
6388;SDS011;3227;42.654;23.360;2023-05-10T05:07:48;10.23;;;6.93;;
6388;SDS011;3227;42.654;23.360;2023-05-10T05:10:16;9.03;;;5.77;;
6388;SDS011;3227;42.654;23.360;2023-05-10T05:12:44;9.03;;;5.90;;
6388;SDS011;3227;42.654;23.360;2023-05-10T05:15:10;9.20;;;5.80;;
6388;SDS011;3227;42.654;23.360;2023-05-10T05:17:37;10.27;;;6.07;;
6388;SDS011;3227;42.654;23.360;2023-05-10T05:20:04;10.43;;;6.50;;
6388;SDS011;3227;42.654;23.360;2023-05-10T05:22:33;9.80;;;6.43;;
6388;SDS011;3227;42.654;23.360;2023-05-10T05:24:59;9.07;;;6.50;;
6388;SDS011;3227;42.654;23.360;2023-05-10T05:27:28;10.33;;;6.13;;
6388;SDS011;3227;42.654;23.360;2023-05-10T05:29:55;10.93;;;6.70;;
6388;SDS011;3227;42.654;23.360;2023-05-10T05:32:23;13.53;;;7.00;;
6388;SDS011;3227;42.654;23.360;2023-05-10T05:34:50;13.17;;;6.27;;
6388;SDS011;3227;42.654;23.360;2023-05-10T05:37:18;11.93;;;7.70;;
6388;SDS011;3227;42.654;23.360;2023-05-10T05:39:46;12.60;;;7.43;;
6388;SDS011;3227;42.654;23.360;2023-05-10T05:42:13;10.07;;;6.87;;
6388;SDS011;3227;42.654;23.360;2023-05-10T05:44:43;11.30;;;6.87;;
6388;SDS011;3227;42.654;23.360;2023-05-10T05:47:09;10.20;;;7.00;;
6388;SDS011;3227;42.654;23.360;2023-05-10T05:49:36;12.50;;;7.53;;
6388;SDS011;3227;42.654;23.360;2023-05-10T05:52:03;11.63;;;7.10;;
6388;SDS011;3227;42.654;23.360;2023-05-10T05:54:30;13.80;;;8.40;;
6388;SDS011;3227;42.654;23.360;2023-05-10T05:56:58;12.60;;;7.33;;
6388;SDS011;3227;42.654;23.360;2023-05-10T05:59:25;12.10;;;7.83;;
6388;SDS011;3227;42.654;23.360;2023-05-10T06:01:54;11.60;;;8.57;;
6388;SDS011;3227;42.654;23.360;2023-05-10T06:04:21;12.90;;;8.73;;
6388;SDS011;3227;42.654;23.360;2023-05-10T06:06:47;13.37;;;8.10;;
6388;SDS011;3227;42.654;23.360;2023-05-10T06:09:14;15.47;;;8.43;;
6388;SDS011;3227;42.654;23.360;2023-05-10T06:11:41;13.70;;;8.00;;
6388;SDS011;3227;42.654;23.360;2023-05-10T06:14:08;13.70;;;9.60;;
6388;SDS011;3227;42.654;23.360;2023-05-10T06:16:35;13.03;;;8.80;;
6388;SDS011;3227;42.654;23.360;2023-05-10T06:19:03;12.13;;;8.20;;
6388;SDS011;3227;42.654;23.360;2023-05-10T06:21:30;11.50;;;8.43;;
6388;SDS011;3227;42.654;23.360;2023-05-10T06:23:57;12.47;;;7.83;;
6388;SDS011;3227;42.654;23.360;2023-05-10T06:26:24;10.67;;;7.77;;
6388;SDS011;3227;42.654;23.360;2023-05-10T06:28:50;14.13;;;9.70;;
6388;SDS011;3227;42.654;23.360;2023-05-10T06:31:17;12.53;;;8.17;;
6388;SDS011;3227;42.654;23.360;2023-05-10T06:33:44;13.95;;;10.18;;
6388;SDS011;3227;42.654;23.360;2023-05-10T06:36:12;16.13;;;9.10;;
6388;SDS011;3227;42.654;23.360;2023-05-10T06:38:44;14.30;;;8.73;;
6388;SDS011;3227;42.654;23.360;2023-05-10T06:41:11;14.73;;;8.93;;
6388;SDS011;3227;42.654;23.360;2023-05-10T06:43:38;17.33;;;8.23;;
6388;SDS011;3227;42.654;23.360;2023-05-10T06:46:06;12.93;;;7.83;;
6388;SDS011;3227;42.654;23.360;2023-05-10T06:48:33;12.70;;;8.33;;
6388;SDS011;3227;42.654;23.360;2023-05-10T06:51:00;11.37;;;8.67;;
6388;SDS011;3227;42.654;23.360;2023-05-10T06:53:28;16.67;;;9.90;;
6388;SDS011;3227;42.654;23.360;2023-05-10T06:55:55;14.53;;;8.03;;
6388;SDS011;3227;42.654;23.360;2023-05-10T06:58:21;13.80;;;8.23;;
6388;SDS011;3227;42.654;23.360;2023-05-10T07:00:48;16.67;;;9.10;;
6388;SDS011;3227;42.654;23.360;2023-05-10T07:03:15;12.15;;;8.52;;
6388;SDS011;3227;42.654;23.360;2023-05-10T07:05:42;10.73;;;7.60;;
6388;SDS011;3227;42.654;23.360;2023-05-10T07:08:09;11.63;;;8.43;;
6388;SDS011;3227;42.654;23.360;2023-05-10T07:10:37;12.13;;;8.33;;
6388;SDS011;3227;42.654;23.360;2023-05-10T07:13:04;12.93;;;7.30;;
6388;SDS011;3227;42.654;23.360;2023-05-10T07:15:31;14.13;;;8.00;;
6388;SDS011;3227;42.654;23.360;2023-05-10T07:17:58;11.53;;;7.70;;
6388;SDS011;3227;42.654;23.360;2023-05-10T07:20:26;14.63;;;8.80;;
6388;SDS011;3227;42.654;23.360;2023-05-10T07:22:53;12.30;;;7.97;;
6388;SDS011;3227;42.654;23.360;2023-05-10T07:25:20;14.20;;;8.10;;
6388;SDS011;3227;42.654;23.360;2023-05-10T07:27:48;12.27;;;8.20;;
6388;SDS011;3227;42.654;23.360;2023-05-10T07:30:16;12.20;;;8.03;;
6388;SDS011;3227;42.654;23.360;2023-05-10T07:32:42;10.73;;;8.20;;
6388;SDS011;3227;42.654;23.360;2023-05-10T07:35:10;17.67;;;9.47;;
6388;SDS011;3227;42.654;23.360;2023-05-10T07:37:36;13.73;;;9.27;;
6388;SDS011;3227;42.654;23.360;2023-05-10T07:40:04;13.63;;;9.37;;
6388;SDS011;3227;42.654;23.360;2023-05-10T07:42:31;13.43;;;10.07;;
6388;SDS011;3227;42.654;23.360;2023-05-10T07:44:59;17.23;;;10.97;;
6388;SDS011;3227;42.654;23.360;2023-05-10T07:47:26;13.63;;;9.37;;
6388;SDS011;3227;42.654;23.360;2023-05-10T07:49:58;12.23;;;8.93;;
6388;SDS011;3227;42.654;23.360;2023-05-10T07:52:25;14.70;;;9.50;;
6388;SDS011;3227;42.654;23.360;2023-05-10T07:54:52;13.60;;;8.10;;
6388;SDS011;3227;42.654;23.360;2023-05-10T07:57:19;11.97;;;8.27;;
6388;SDS011;3227;42.654;23.360;2023-05-10T07:59:46;14.70;;;10.03;;
6388;SDS011;3227;42.654;23.360;2023-05-10T08:02:14;14.20;;;9.53;;
6388;SDS011;3227;42.654;23.360;2023-05-10T08:04:41;18.23;;;10.65;;
6388;SDS011;3227;42.654;23.360;2023-05-10T08:07:08;16.07;;;9.30;;
6388;SDS011;3227;42.654;23.360;2023-05-10T08:09:35;16.42;;;10.98;;
6388;SDS011;3227;42.654;23.360;2023-05-10T08:12:02;15.17;;;10.10;;
6388;SDS011;3227;42.654;23.360;2023-05-10T08:14:30;12.87;;;9.23;;
6388;SDS011;3227;42.654;23.360;2023-05-10T08:16:56;14.43;;;9.97;;
6388;SDS011;3227;42.654;23.360;2023-05-10T08:19:25;11.13;;;8.60;;
6388;SDS011;3227;42.654;23.360;2023-05-10T08:21:51;14.30;;;9.30;;
6388;SDS011;3227;42.654;23.360;2023-05-10T08:24:20;11.50;;;8.70;;
6388;SDS011;3227;42.654;23.360;2023-05-10T08:26:47;13.97;;;7.33;;
6388;SDS011;3227;42.654;23.360;2023-05-10T08:29:14;12.77;;;8.73;;
6388;SDS011;3227;42.654;23.360;2023-05-10T08:31:41;16.38;;;9.15;;
6388;SDS011;3227;42.654;23.360;2023-05-10T08:34:07;11.60;;;8.13;;
6388;SDS011;3227;42.654;23.360;2023-05-10T08:36:36;11.33;;;7.93;;
6388;SDS011;3227;42.654;23.360;2023-05-10T08:39:03;16.57;;;9.40;;
6388;SDS011;3227;42.654;23.360;2023-05-10T08:41:29;15.07;;;10.73;;
6388;SDS011;3227;42.654;23.360;2023-05-10T08:43:59;15.60;;;9.63;;
6388;SDS011;3227;42.654;23.360;2023-05-10T08:46:30;15.77;;;11.37;;
6388;SDS011;3227;42.654;23.360;2023-05-10T08:49:00;18.00;;;10.10;;
6388;SDS011;3227;42.654;23.360;2023-05-10T08:51:31;14.68;;;10.85;;
6388;SDS011;3227;42.654;23.360;2023-05-10T08:54:06;17.10;;;9.43;;
6388;SDS011;3227;42.654;23.360;2023-05-10T08:56:33;17.17;;;9.97;;
6388;SDS011;3227;42.654;23.360;2023-05-10T08:59:00;15.35;;;11.63;;
6388;SDS011;3227;42.654;23.360;2023-05-10T09:01:28;16.17;;;8.80;;
6388;SDS011;3227;42.654;23.360;2023-05-10T09:03:57;12.83;;;8.73;;
6388;SDS011;3227;42.654;23.360;2023-05-10T09:06:25;19.20;;;10.30;;
6388;SDS011;3227;42.654;23.360;2023-05-10T09:08:53;17.73;;;9.07;;
6388;SDS011;3227;42.654;23.360;2023-05-10T09:11:20;12.70;;;9.20;;
6388;SDS011;3227;42.654;23.360;2023-05-10T09:13:48;13.50;;;10.05;;
6388;SDS011;3227;42.654;23.360;2023-05-10T09:16:17;11.37;;;9.10;;
6388;SDS011;3227;42.654;23.360;2023-05-10T09:18:44;16.10;;;10.13;;
6388;SDS011;3227;42.654;23.360;2023-05-10T09:21:11;12.87;;;9.93;;
6388;SDS011;3227;42.654;23.360;2023-05-10T09:23:38;14.83;;;9.03;;
6388;SDS011;3227;42.654;23.360;2023-05-10T09:26:10;13.93;;;9.53;;
6388;SDS011;3227;42.654;23.360;2023-05-10T09:28:49;15.23;;;9.93;;
6388;SDS011;3227;42.654;23.360;2023-05-10T09:31:17;14.93;;;9.43;;
6388;SDS011;3227;42.654;23.360;2023-05-10T09:33:44;16.70;;;11.25;;
6388;SDS011;3227;42.654;23.360;2023-05-10T09:36:11;12.83;;;9.17;;
6388;SDS011;3227;42.654;23.360;2023-05-10T09:38:45;14.30;;;10.43;;
6388;SDS011;3227;42.654;23.360;2023-05-10T09:41:16;14.50;;;9.07;;
6388;SDS011;3227;42.654;23.360;2023-05-10T09:43:44;13.23;;;9.23;;
6388;SDS011;3227;42.654;23.360;2023-05-10T09:46:11;11.97;;;8.23;;
6388;SDS011;3227;42.654;23.360;2023-05-10T09:48:39;11.37;;;8.50;;
6388;SDS011;3227;42.654;23.360;2023-05-10T09:51:09;11.70;;;8.87;;
6388;SDS011;3227;42.654;23.360;2023-05-10T09:53:36;12.60;;;9.13;;
6388;SDS011;3227;42.654;23.360;2023-05-10T09:56:02;15.93;;;9.02;;
6388;SDS011;3227;42.654;23.360;2023-05-10T09:58:31;13.00;;;8.83;;
6388;SDS011;3227;42.654;23.360;2023-05-10T10:01:03;14.20;;;10.20;;
6388;SDS011;3227;42.654;23.360;2023-05-10T10:03:30;13.60;;;10.20;;
6388;SDS011;3227;42.654;23.360;2023-05-10T10:05:57;18.47;;;9.53;;
6388;SDS011;3227;42.654;23.360;2023-05-10T10:08:23;14.07;;;9.23;;
6388;SDS011;3227;42.654;23.360;2023-05-10T10:10:51;16.57;;;10.50;;
6388;SDS011;3227;42.654;23.360;2023-05-10T10:13:18;11.40;;;8.27;;
6388;SDS011;3227;42.654;23.360;2023-05-10T10:15:46;12.80;;;9.23;;
6388;SDS011;3227;42.654;23.360;2023-05-10T10:18:16;17.60;;;11.43;;
6388;SDS011;3227;42.654;23.360;2023-05-10T10:20:44;13.80;;;8.17;;
6388;SDS011;3227;42.654;23.360;2023-05-10T10:23:11;13.47;;;8.37;;
6388;SDS011;3227;42.654;23.360;2023-05-10T10:25:38;12.97;;;8.67;;
6388;SDS011;3227;42.654;23.360;2023-05-10T10:28:10;12.90;;;8.47;;
6388;SDS011;3227;42.654;23.360;2023-05-10T10:30:51;12.63;;;8.27;;
6388;SDS011;3227;42.654;23.360;2023-05-10T10:33:40;13.03;;;7.90;;
6388;SDS011;3227;42.654;23.360;2023-05-10T10:36:17;13.50;;;8.57;;
6388;SDS011;3227;42.654;23.360;2023-05-10T10:38:55;15.67;;;7.07;;
6388;SDS011;3227;42.654;23.360;2023-05-10T10:41:32;14.37;;;7.70;;
6388;SDS011;3227;42.654;23.360;2023-05-10T10:47:00;9.63;;;6.80;;
6388;SDS011;3227;42.654;23.360;2023-05-10T10:49:30;13.93;;;7.00;;
6388;SDS011;3227;42.654;23.360;2023-05-10T10:52:12;10.37;;;7.00;;
6388;SDS011;3227;42.654;23.360;2023-05-10T10:54:40;11.20;;;7.77;;
6388;SDS011;3227;42.654;23.360;2023-05-10T10:57:10;12.80;;;7.03;;
6388;SDS011;3227;42.654;23.360;2023-05-10T10:59:41;11.10;;;7.47;;
6388;SDS011;3227;42.654;23.360;2023-05-10T11:02:10;15.63;;;7.47;;
6388;SDS011;3227;42.654;23.360;2023-05-10T11:04:57;15.83;;;7.73;;
6388;SDS011;3227;42.654;23.360;2023-05-10T11:07:24;10.97;;;7.00;;
6388;SDS011;3227;42.654;23.360;2023-05-10T11:09:51;10.17;;;7.77;;
6388;SDS011;3227;42.654;23.360;2023-05-10T11:12:17;12.70;;;7.30;;
6388;SDS011;3227;42.654;23.360;2023-05-10T11:14:49;9.43;;;6.70;;
6388;SDS011;3227;42.654;23.360;2023-05-10T11:17:24;14.50;;;7.50;;
6388;SDS011;3227;42.654;23.360;2023-05-10T11:20:07;14.50;;;7.20;;
6388;SDS011;3227;42.654;23.360;2023-05-10T11:22:48;11.57;;;7.43;;
6388;SDS011;3227;42.654;23.360;2023-05-10T11:25:16;12.57;;;7.23;;
6388;SDS011;3227;42.654;23.360;2023-05-10T11:27:43;14.90;;;7.45;;
6388;SDS011;3227;42.654;23.360;2023-05-10T11:30:10;9.70;;;7.23;;
6388;SDS011;3227;42.654;23.360;2023-05-10T11:32:39;11.97;;;7.57;;
6388;SDS011;3227;42.654;23.360;2023-05-10T11:35:07;13.17;;;8.63;;
6388;SDS011;3227;42.654;23.360;2023-05-10T11:37:34;16.23;;;7.80;;
6388;SDS011;3227;42.654;23.360;2023-05-10T11:40:02;12.53;;;7.43;;
6388;SDS011;3227;42.654;23.360;2023-05-10T11:42:29;15.80;;;7.93;;
6388;SDS011;3227;42.654;23.360;2023-05-10T11:44:56;13.60;;;7.60;;
6388;SDS011;3227;42.654;23.360;2023-05-10T11:47:23;12.68;;;7.80;;
6388;SDS011;3227;42.654;23.360;2023-05-10T11:49:51;13.68;;;7.93;;
6388;SDS011;3227;42.654;23.360;2023-05-10T11:52:18;13.97;;;7.33;;
6388;SDS011;3227;42.654;23.360;2023-05-10T11:54:48;12.80;;;8.10;;
6388;SDS011;3227;42.654;23.360;2023-05-10T11:57:18;12.18;;;7.57;;
6388;SDS011;3227;42.654;23.360;2023-05-10T11:59:45;9.20;;;6.57;;
6388;SDS011;3227;42.654;23.360;2023-05-10T12:02:12;14.23;;;8.07;;
6388;SDS011;3227;42.654;23.360;2023-05-10T12:04:39;11.70;;;6.97;;
6388;SDS011;3227;42.654;23.360;2023-05-10T12:07:07;12.43;;;8.25;;
6388;SDS011;3227;42.654;23.360;2023-05-10T12:09:35;13.00;;;8.68;;
6388;SDS011;3227;42.654;23.360;2023-05-10T12:12:02;14.10;;;8.10;;
6388;SDS011;3227;42.654;23.360;2023-05-10T12:14:29;16.20;;;8.47;;
6388;SDS011;3227;42.654;23.360;2023-05-10T12:17:00;15.00;;;8.48;;
6388;SDS011;3227;42.654;23.360;2023-05-10T12:19:27;14.95;;;8.80;;
6388;SDS011;3227;42.654;23.360;2023-05-10T12:21:54;11.90;;;8.13;;
6388;SDS011;3227;42.654;23.360;2023-05-10T12:24:22;11.73;;;8.17;;
6388;SDS011;3227;42.654;23.360;2023-05-10T12:26:50;18.65;;;9.95;;
6388;SDS011;3227;42.654;23.360;2023-05-10T12:29:18;12.77;;;8.40;;
6388;SDS011;3227;42.654;23.360;2023-05-10T12:31:52;13.90;;;8.13;;
6388;SDS011;3227;42.654;23.360;2023-05-10T12:34:23;14.33;;;9.27;;
6388;SDS011;3227;42.654;23.360;2023-05-10T12:36:51;14.90;;;8.90;;
6388;SDS011;3227;42.654;23.360;2023-05-10T12:39:19;11.77;;;8.27;;
6388;SDS011;3227;42.654;23.360;2023-05-10T12:41:47;10.37;;;6.60;;
6388;SDS011;3227;42.654;23.360;2023-05-10T12:44:14;10.77;;;6.80;;
6388;SDS011;3227;42.654;23.360;2023-05-10T12:46:40;13.70;;;8.00;;
6388;SDS011;3227;42.654;23.360;2023-05-10T12:49:07;11.87;;;7.90;;
6388;SDS011;3227;42.654;23.360;2023-05-10T12:51:34;10.03;;;7.40;;
6388;SDS011;3227;42.654;23.360;2023-05-10T12:54:02;16.70;;;7.40;;
6388;SDS011;3227;42.654;23.360;2023-05-10T12:56:28;11.80;;;7.03;;
6388;SDS011;3227;42.654;23.360;2023-05-10T12:58:57;14.73;;;7.73;;
6388;SDS011;3227;42.654;23.360;2023-05-10T13:01:23;11.93;;;7.50;;
6388;SDS011;3227;42.654;23.360;2023-05-10T13:03:50;15.80;;;7.67;;
6388;SDS011;3227;42.654;23.360;2023-05-10T13:06:17;10.67;;;7.03;;
6388;SDS011;3227;42.654;23.360;2023-05-10T13:08:44;14.17;;;8.07;;
6388;SDS011;3227;42.654;23.360;2023-05-10T13:11:11;16.03;;;8.57;;
6388;SDS011;3227;42.654;23.360;2023-05-10T13:13:41;15.00;;;7.43;;
6388;SDS011;3227;42.654;23.360;2023-05-10T13:16:09;15.47;;;7.40;;
6388;SDS011;3227;42.654;23.360;2023-05-10T13:18:36;12.82;;;8.45;;
6388;SDS011;3227;42.654;23.360;2023-05-10T13:21:03;15.73;;;7.70;;
6388;SDS011;3227;42.654;23.360;2023-05-10T13:23:30;13.60;;;6.80;;
6388;SDS011;3227;42.654;23.360;2023-05-10T13:25:57;12.23;;;7.13;;
6388;SDS011;3227;42.654;23.360;2023-05-10T13:28:24;8.80;;;5.83;;
6388;SDS011;3227;42.654;23.360;2023-05-10T13:30:51;12.87;;;7.77;;
6388;SDS011;3227;42.654;23.360;2023-05-10T13:33:19;8.87;;;6.60;;
6388;SDS011;3227;42.654;23.360;2023-05-10T13:35:46;11.37;;;6.63;;
6388;SDS011;3227;42.654;23.360;2023-05-10T13:38:13;13.57;;;7.37;;
6388;SDS011;3227;42.654;23.360;2023-05-10T13:40:40;12.43;;;6.77;;
6388;SDS011;3227;42.654;23.360;2023-05-10T13:43:06;12.03;;;6.70;;
6388;SDS011;3227;42.654;23.360;2023-05-10T13:45:33;15.03;;;7.03;;
6388;SDS011;3227;42.654;23.360;2023-05-10T13:48:00;10.40;;;6.50;;
6388;SDS011;3227;42.654;23.360;2023-05-10T13:50:29;11.97;;;6.80;;
6388;SDS011;3227;42.654;23.360;2023-05-10T13:52:56;14.40;;;6.70;;
6388;SDS011;3227;42.654;23.360;2023-05-10T13:55:22;15.23;;;7.40;;
6388;SDS011;3227;42.654;23.360;2023-05-10T13:57:49;11.70;;;7.40;;
6388;SDS011;3227;42.654;23.360;2023-05-10T14:00:17;10.47;;;7.60;;
6388;SDS011;3227;42.654;23.360;2023-05-10T14:02:44;14.43;;;7.30;;
6388;SDS011;3227;42.654;23.360;2023-05-10T14:05:10;20.57;;;8.23;;
6388;SDS011;3227;42.654;23.360;2023-05-10T14:07:38;10.83;;;7.50;;
6388;SDS011;3227;42.654;23.360;2023-05-10T14:10:06;13.93;;;7.50;;
6388;SDS011;3227;42.654;23.360;2023-05-10T14:12:33;10.47;;;6.80;;
6388;SDS011;3227;42.654;23.360;2023-05-10T14:15:00;12.50;;;7.70;;
6388;SDS011;3227;42.654;23.360;2023-05-10T14:17:27;11.87;;;7.73;;
6388;SDS011;3227;42.654;23.360;2023-05-10T14:19:54;12.23;;;7.30;;
6388;SDS011;3227;42.654;23.360;2023-05-10T14:22:20;11.00;;;7.63;;
6388;SDS011;3227;42.654;23.360;2023-05-10T14:24:49;14.03;;;8.50;;
6388;SDS011;3227;42.654;23.360;2023-05-10T14:27:15;13.33;;;8.20;;
6388;SDS011;3227;42.654;23.360;2023-05-10T14:29:43;14.90;;;8.80;;
6388;SDS011;3227;42.654;23.360;2023-05-10T14:32:09;16.47;;;7.83;;
6388;SDS011;3227;42.654;23.360;2023-05-10T14:34:36;15.53;;;8.27;;
6388;SDS011;3227;42.654;23.360;2023-05-10T14:37:03;14.90;;;9.02;;
6388;SDS011;3227;42.654;23.360;2023-05-10T14:39:30;11.70;;;7.73;;
6388;SDS011;3227;42.654;23.360;2023-05-10T14:41:59;15.27;;;8.90;;
6388;SDS011;3227;42.654;23.360;2023-05-10T14:44:27;14.73;;;8.30;;
6388;SDS011;3227;42.654;23.360;2023-05-10T14:46:54;13.27;;;7.93;;
6388;SDS011;3227;42.654;23.360;2023-05-10T14:49:21;12.97;;;8.60;;
6388;SDS011;3227;42.654;23.360;2023-05-10T14:51:50;13.17;;;8.17;;
6388;SDS011;3227;42.654;23.360;2023-05-10T14:54:17;16.30;;;8.23;;
6388;SDS011;3227;42.654;23.360;2023-05-10T14:56:44;13.47;;;8.00;;
6388;SDS011;3227;42.654;23.360;2023-05-10T14:59:22;16.60;;;8.80;;
6388;SDS011;3227;42.654;23.360;2023-05-10T15:01:49;11.77;;;8.32;;
6388;SDS011;3227;42.654;23.360;2023-05-10T15:04:16;10.87;;;7.03;;
6388;SDS011;3227;42.654;23.360;2023-05-10T15:06:43;11.90;;;7.60;;